createdAt,value
2022-12-18T00:00:42.735Z,82.72
2022-12-18T00:04:55.746Z,82.68
2022-12-18T00:08:56.838Z,82.65
2022-12-18T00:12:56.097Z,82.82
2022-12-18T00:17:09.041Z,82.86
2022-12-18T00:21:09.674Z,82.83
2022-12-18T00:25:09.528Z,82.82
2022-12-18T00:29:11.800Z,82.80
2022-12-18T00:33:10.790Z,82.83
2022-12-18T00:37:10.020Z,82.80
2022-12-18T00:41:10.289Z,82.77
2022-12-18T00:45:13.014Z,82.70
2022-12-18T00:49:13.811Z,82.66
2022-12-18T00:53:26.379Z,82.61
2022-12-18T00:57:25.953Z,82.62
2022-12-18T01:01:25.377Z,82.66
2022-12-18T01:05:24.505Z,82.74
2022-12-18T01:09:24.455Z,82.79
2022-12-18T01:13:39.650Z,82.78
2022-12-18T01:17:39.168Z,82.73
2022-12-18T01:21:38.531Z,82.75
2022-12-18T01:25:38.094Z,82.71
2022-12-18T01:29:37.135Z,82.70
2022-12-18T01:33:50.950Z,82.69
2022-12-18T01:37:49.931Z,82.75
2022-12-18T01:42:16.131Z,82.83
2022-12-18T01:46:16.497Z,82.98
2022-12-18T01:50:24.875Z,83.17
2022-12-18T01:54:26.213Z,83.28
2022-12-18T01:58:58.435Z,83.31
2022-12-18T02:02:57.917Z,83.36
2022-12-18T02:07:16.282Z,83.35
2022-12-18T02:11:23.689Z,83.36
2022-12-18T02:15:28.170Z,83.34
2022-12-18T02:19:45.207Z,83.24
2022-12-18T02:24:08.729Z,83.12
2022-12-18T02:28:12.909Z,82.93
2022-12-18T02:32:21.352Z,82.82
2022-12-18T02:35:50.167Z,82.71
2022-12-18T02:39:50.449Z,82.64
2022-12-18T02:43:50.528Z,82.67
2022-12-18T02:47:50.944Z,82.86
2022-12-18T02:51:53.772Z,82.69
2022-12-18T02:56:05.570Z,82.77
2022-12-18T03:00:05.385Z,82.84
2022-12-18T03:04:09.088Z,82.96
2022-12-18T03:08:11.527Z,83.26
2022-12-18T03:12:30.357Z,83.54
2022-12-18T03:16:32.342Z,83.75
2022-12-18T03:20:35.390Z,84.03
2022-12-18T03:24:34.856Z,84.24
2022-12-18T03:28:37.740Z,84.35
2022-12-18T03:33:06.758Z,84.42
2022-12-18T03:36:34.018Z,84.46
2022-12-18T03:39:52.813Z,84.47
2022-12-18T03:43:52.025Z,84.50
2022-12-18T03:47:55.280Z,84.47
2022-12-18T03:52:03.397Z,84.46
2022-12-18T03:56:17.667Z,84.43
2022-12-18T04:00:36.140Z,84.45
2022-12-18T04:03:55.223Z,84.49
2022-12-18T04:08:09.088Z,84.49
2022-12-18T04:12:10.595Z,84.48
2022-12-18T04:16:28.953Z,84.40
2022-12-18T04:19:47.035Z,84.39
2022-12-18T04:24:00.217Z,84.45
2022-12-18T04:28:00.774Z,84.52
2022-12-18T04:32:00.132Z,84.54
2022-12-18T04:35:59.950Z,84.56
2022-12-18T04:39:59.351Z,84.58
2022-12-18T04:44:23.116Z,84.62
2022-12-18T04:47:41.990Z,84.66
2022-12-18T04:51:40.889Z,84.65
2022-12-18T04:56:03.452Z,84.65
2022-12-18T04:59:17.737Z,84.65
2022-12-18T05:03:17.329Z,84.66
2022-12-18T05:07:30.318Z,84.62
2022-12-18T05:11:29.333Z,84.58
2022-12-18T05:15:31.272Z,84.59
2022-12-18T05:19:30.176Z,84.59
2022-12-18T05:23:48.011Z,84.61
2022-12-18T05:27:07.174Z,84.59
2022-12-18T05:31:06.862Z,84.56
2022-12-18T05:35:25.035Z,84.54
2022-12-18T05:38:43.730Z,84.52
2022-12-18T05:42:42.711Z,84.44
2022-12-18T05:46:41.764Z,84.27
2022-12-18T05:50:42.519Z,84.09
2022-12-18T05:54:41.593Z,83.89
2022-12-18T05:58:41.014Z,83.74
2022-12-18T06:02:40.792Z,83.52
2022-12-18T06:06:40.253Z,83.40
2022-12-18T06:10:39.258Z,83.30
2022-12-18T06:14:38.109Z,83.28
2022-12-18T06:18:36.827Z,83.15
2022-12-18T06:22:36.424Z,83.05
2022-12-18T06:26:38.248Z,82.87
2022-12-18T06:30:14.435Z,82.72
2022-12-18T06:34:14.442Z,82.71
2022-12-18T06:38:13.629Z,82.72
2022-12-18T06:42:13.193Z,82.70
2022-12-18T06:46:13.116Z,82.60
2022-12-18T06:50:12.861Z,82.55
2022-12-18T06:54:11.974Z,82.55
2022-12-18T06:58:11.244Z,82.29
2022-12-18T07:02:14.477Z,82.10
2022-12-18T07:06:27.707Z,82.06
2022-12-18T07:10:27.542Z,82.13
2022-12-18T07:14:27.081Z,82.18
2022-12-18T07:18:26.614Z,82.21
2022-12-18T07:22:27.076Z,82.10
2022-12-18T07:26:47.674Z,81.98
2022-12-18T07:30:04.254Z,81.93
2022-12-18T07:34:03.743Z,81.86
2022-12-18T07:38:03.157Z,81.82
2022-12-18T07:42:21.205Z,81.79
2022-12-18T07:46:21.602Z,81.79
2022-12-18T07:50:21.667Z,81.77
2022-12-18T07:53:58.807Z,81.79
2022-12-18T07:58:12.623Z,81.84
2022-12-18T08:02:12.453Z,81.88
2022-12-18T08:06:12.208Z,81.80
2022-12-18T08:10:12.154Z,81.65
2022-12-18T08:14:30.330Z,81.49
2022-12-18T08:17:49.354Z,81.32
2022-12-18T08:21:49.419Z,81.09
2022-12-18T08:25:49.377Z,80.93
2022-12-18T08:29:48.732Z,80.59
2022-12-18T08:33:49.316Z,80.38
2022-12-18T08:37:49.427Z,80.25
2022-12-18T08:42:10.411Z,80.24
2022-12-18T08:46:11.154Z,80.13
2022-12-18T08:50:13.747Z,79.87
2022-12-18T08:54:15.086Z,79.57
2022-12-18T08:58:14.137Z,79.32
2022-12-18T09:02:13.575Z,79.35
2022-12-18T09:06:17.427Z,79.20
2022-12-18T09:10:43.377Z,78.84
2022-12-18T09:13:55.016Z,78.23
2022-12-18T09:17:55.192Z,77.64
2022-12-18T09:21:54.706Z,77.11
2022-12-18T09:25:59.552Z,76.45
2022-12-18T09:29:58.768Z,76.00
2022-12-18T09:33:58.537Z,75.31
2022-12-18T09:37:57.787Z,74.73
2022-12-18T09:41:59.371Z,74.29
2022-12-18T09:46:00.469Z,73.93
2022-12-18T09:50:00.839Z,73.78
2022-12-18T09:54:03.086Z,73.77
2022-12-18T09:58:07.408Z,73.47
2022-12-18T10:02:15.278Z,73.54
2022-12-18T10:06:16.851Z,73.77
2022-12-18T10:10:35.187Z,73.60
2022-12-18T10:14:37.326Z,73.77
2022-12-18T10:18:55.748Z,73.67
2022-12-18T10:23:14.352Z,73.46
2022-12-18T10:26:33.747Z,73.25
2022-12-18T10:30:33.374Z,72.90
2022-12-18T10:34:32.542Z,73.11
2022-12-18T10:38:33.015Z,73.48
2022-12-18T10:43:10.131Z,73.63
2022-12-18T10:46:09.972Z,73.57
2022-12-18T10:50:19.707Z,73.51
2022-12-18T10:54:22.370Z,73.58
2022-12-18T10:58:41.233Z,73.56
2022-12-18T11:02:00.209Z,73.01
2022-12-18T11:06:19.961Z,72.65
2022-12-18T11:10:20.169Z,72.57
2022-12-18T11:14:23.547Z,72.78
2022-12-18T11:18:36.345Z,72.71
2022-12-18T11:22:37.414Z,72.55
2022-12-18T11:26:37.485Z,72.32
2022-12-18T11:30:37.812Z,72.31
2022-12-18T11:34:37.444Z,72.29
2022-12-18T11:38:38.901Z,72.26
2022-12-18T11:42:57.509Z,72.30
2022-12-18T11:47:01.704Z,72.37
2022-12-18T11:51:03.336Z,72.53
2022-12-18T11:55:06.381Z,72.57
2022-12-18T11:59:26.845Z,72.33
2022-12-18T12:03:45.730Z,72.24
2022-12-18T12:08:04.328Z,72.11
2022-12-18T12:12:16.150Z,72.05
2022-12-18T12:16:15.371Z,72.14
2022-12-18T12:20:23.406Z,72.11
2022-12-18T12:24:35.517Z,72.08
2022-12-18T12:28:48.806Z,72.15
2022-12-18T12:33:06.849Z,72.28
2022-12-18T12:37:25.652Z,72.08
2022-12-18T12:41:46.545Z,72.00
2022-12-18T12:46:07.661Z,71.76
2022-12-18T12:49:26.548Z,71.49
2022-12-18T12:53:31.986Z,71.39
2022-12-18T12:58:05.192Z,71.44
2022-12-18T13:02:25.561Z,71.40
2022-12-18T13:06:25.778Z,71.45
2022-12-18T13:10:27.550Z,71.35
2022-12-18T13:14:33.276Z,71.23
2022-12-18T13:18:33.587Z,71.20
2022-12-18T13:22:38.209Z,70.50
2022-12-18T13:26:51.345Z,70.41
2022-12-18T13:30:50.256Z,70.35
2022-12-18T13:35:22.835Z,70.33
2022-12-18T13:38:32.450Z,70.51
2022-12-18T13:42:58.563Z,70.47
2022-12-18T13:46:58.463Z,70.19
2022-12-18T13:51:04.585Z,70.08
2022-12-18T13:55:08.280Z,70.32
2022-12-18T13:59:26.996Z,70.41
2022-12-18T14:03:29.191Z,70.82
2022-12-18T14:07:34.550Z,71.03
2022-12-18T14:16:07.397Z,71.56
2022-12-18T14:20:14.217Z,71.71
2022-12-18T14:24:32.683Z,71.93
2022-12-18T14:27:53.005Z,71.99
2022-12-18T14:32:18.649Z,72.06
2022-12-18T14:36:26.046Z,72.13
2022-12-18T14:40:25.796Z,72.15
2022-12-18T14:44:25.445Z,72.30
2022-12-18T14:48:25.586Z,72.38
2022-12-18T14:52:30.985Z,71.95
2022-12-18T14:56:05.122Z,71.55
2022-12-18T15:04:36.792Z,71.61
2022-12-18T15:08:38.987Z,71.86
2022-12-18T15:12:26.766Z,72.02
2022-12-18T15:16:26.301Z,72.16
2022-12-18T15:20:25.535Z,72.31
2022-12-18T15:24:28.289Z,72.39
2022-12-18T15:28:33.158Z,72.35
2022-12-18T15:32:33.403Z,72.31
2022-12-18T15:36:37.660Z,72.26
2022-12-18T15:40:37.157Z,72.26
2022-12-18T15:44:36.766Z,72.40
2022-12-18T15:48:40.286Z,72.37
2022-12-18T15:52:44.774Z,72.24
2022-12-18T15:57:03.169Z,72.18
2022-12-18T16:01:02.807Z,72.17
2022-12-18T16:05:02.497Z,72.11
2022-12-18T16:09:02.486Z,72.21
2022-12-18T16:13:02.295Z,72.32
2022-12-18T16:17:03.153Z,72.46
2022-12-18T16:21:02.500Z,72.53
2022-12-18T16:25:03.461Z,72.60
2022-12-18T16:28:45.187Z,72.58
2022-12-18T16:32:47.636Z,72.61
2022-12-18T16:36:49.280Z,72.62
2022-12-18T16:40:25.970Z,72.64
2022-12-18T16:44:25.262Z,72.65
2022-12-18T16:48:25.030Z,72.63
2022-12-18T16:52:25.186Z,72.59
2022-12-18T16:56:24.827Z,72.53
2022-12-18T17:00:24.166Z,72.33
2022-12-18T17:04:23.669Z,72.18
2022-12-18T17:08:22.845Z,72.21
2022-12-18T17:12:22.829Z,72.33
2022-12-18T17:16:22.587Z,72.50
2022-12-18T17:20:22.592Z,72.49
2022-12-18T17:24:22.694Z,72.54
2022-12-18T17:28:35.870Z,72.65
2022-12-18T17:32:34.738Z,72.86
2022-12-18T17:36:34.475Z,72.90
2022-12-18T17:40:34.038Z,72.97
2022-12-18T17:44:34.666Z,73.03
2022-12-18T17:48:57.226Z,73.06
2022-12-18T17:52:11.812Z,73.00
2022-12-18T17:56:16.073Z,73.01
2022-12-18T18:00:34.623Z,73.04
2022-12-18T18:03:56.302Z,73.07
2022-12-18T18:07:57.606Z,73.09
2022-12-18T18:12:15.805Z,73.24
2022-12-18T18:16:15.832Z,73.43
2022-12-18T18:20:22.306Z,73.58
2022-12-18T18:24:23.765Z,73.60
2022-12-18T18:28:23.147Z,73.59
2022-12-18T18:32:23.135Z,73.66
2022-12-18T18:36:22.770Z,73.81
2022-12-18T18:40:22.103Z,74.04
2022-12-18T18:44:25.739Z,74.03
2022-12-18T18:48:27.290Z,73.85
2022-12-18T18:52:29.453Z,73.81
2022-12-18T19:00:56.600Z,73.80
2022-12-18T19:04:58.346Z,74.03
2022-12-18T19:08:36.275Z,73.92
2022-12-18T19:12:54.716Z,73.90
2022-12-18T19:16:54.496Z,73.91
2022-12-18T19:20:59.727Z,73.72
2022-12-18T19:25:18.176Z,73.51
2022-12-18T19:28:37.224Z,73.43
2022-12-18T19:32:36.700Z,73.39
2022-12-18T19:36:37.521Z,73.52
2022-12-18T19:40:41.082Z,73.73
2022-12-18T19:44:41.033Z,73.73
2022-12-18T19:48:41.684Z,73.35
2022-12-18T19:52:41.652Z,73.12
2022-12-18T19:56:43.625Z,73.41
2022-12-18T20:00:47.199Z,73.63
2022-12-18T20:04:47.474Z,73.78
2022-12-18T20:08:47.321Z,73.72
2022-12-18T20:12:46.487Z,73.56
2022-12-18T20:17:00.415Z,73.58
2022-12-18T20:21:00.384Z,73.67
2022-12-18T20:25:15.396Z,73.74
2022-12-18T20:29:14.761Z,73.82
2022-12-18T20:33:14.547Z,73.89
2022-12-18T20:37:13.977Z,73.93
2022-12-18T20:41:17.815Z,73.77
2022-12-18T20:45:36.894Z,73.79
2022-12-18T20:48:55.174Z,73.88
2022-12-18T20:52:54.587Z,73.91
2022-12-18T20:56:54.299Z,73.90
2022-12-18T21:01:26.292Z,74.00
2022-12-18T21:05:39.955Z,74.03
2022-12-18T21:09:39.507Z,74.11
2022-12-18T21:13:38.987Z,74.11
2022-12-18T21:17:52.011Z,74.12
2022-12-18T21:21:56.695Z,74.13
2022-12-18T21:25:29.936Z,74.15
2022-12-18T21:29:29.397Z,74.16
2022-12-18T21:33:28.786Z,74.14
2022-12-18T21:37:27.806Z,74.18
2022-12-18T21:41:46.614Z,74.27
2022-12-18T21:45:46.514Z,74.27
2022-12-18T21:50:04.573Z,74.31
2022-12-18T21:53:23.425Z,74.31
2022-12-18T21:57:22.772Z,74.34
2022-12-18T22:01:22.290Z,74.31
2022-12-18T22:05:22.074Z,74.26
2022-12-18T22:09:53.712Z,74.23
2022-12-18T22:13:12.847Z,74.19
2022-12-18T22:17:11.827Z,74.13
2022-12-18T22:21:29.369Z,73.99
2022-12-18T22:25:29.050Z,74.03
2022-12-18T22:29:46.662Z,74.13
2022-12-18T22:33:45.897Z,74.31
2022-12-18T22:37:47.125Z,74.59
2022-12-18T22:41:46.693Z,74.08
2022-12-18T22:45:47.667Z,74.03
2022-12-18T22:49:47.082Z,73.96
2022-12-18T22:53:46.716Z,73.95
2022-12-18T22:57:49.133Z,74.27
2022-12-18T23:01:49.509Z,74.55
2022-12-18T23:05:50.255Z,74.76
2022-12-18T23:09:51.345Z,75.05
2022-12-18T23:14:17.971Z,74.84
2022-12-18T23:17:37.006Z,74.78
2022-12-18T23:21:36.738Z,75.03
2022-12-18T23:25:36.297Z,75.14
2022-12-18T23:29:35.050Z,75.06
2022-12-18T23:33:34.375Z,75.05
2022-12-18T23:37:57.611Z,74.93
2022-12-18T23:42:06.935Z,75.04
2022-12-18T23:46:12.992Z,74.84
2022-12-18T23:50:29.516Z,74.72
2022-12-18T23:54:32.883Z,74.55
2022-12-18T23:58:07.945Z,74.76
